Menalon — SXCH — position and weather

sailwx.info

Track history (hours):
 
Tides and Currents Weather Stations Pressure Air Temp Water Temp Dewpoint Dewpoint Depression Visibility Wind Speed Wind Dir Waves Ship Positions

Menalon

Last reported at 2015-Sep-04 22:33 UTC. Time now 2015-Sep-04 23:09 UTC.
Position N 38°02' E 023°32'.

; draft 3.5 m.

Type: Ship (hazmat cat C). MMSI: 239741000.

Date/timePositionNaut miles runAvg speedWind from/ knotsBaromVisibWave heightAir tempDewpointWater temp
2015-Sep-04 22:33N 38°02' E 023°32'0 0.0
2015-Sep-04 21:33N 38°02' E 023°32'0 0.0
2015-Sep-04 20:33N 38°02' E 023°32'0 0.0
2015-Sep-04 19:33N 38°02' E 023°32'0 0.0
2015-Sep-04 18:33N 38°02' E 023°32'3 2.8
2015-Sep-04 17:32N 38°02' E 023°36'0 0.0
2015-Sep-04 16:33N 38°02' E 023°36'0 0.0
2015-Sep-04 15:33N 38°02' E 023°36'1 0.7
2015-Sep-04 14:32N 38°01' E 023°35'0 0.1
2015-Sep-04 13:33N 38°02' E 023°35'2 2.1
2015-Sep-04 12:33N 38°02' E 023°32'0 0.0
2015-Sep-04 11:33N 38°02' E 023°32'0 0.0
2015-Sep-04 10:33N 38°02' E 023°32'0 0.0
2015-Sep-04 09:33N 38°02' E 023°32'0 0.0
2015-Sep-04 08:33N 38°02' E 023°32'0 0.0
2015-Sep-04 07:33N 38°02' E 023°32'0 0.0
2015-Sep-04 06:33N 38°02' E 023°32'0 0.0
2015-Sep-04 05:33N 38°02' E 023°32'0 0.0
2015-Sep-04 04:33N 38°02' E 023°32'0 0.0
2015-Sep-04 03:33N 38°02' E 023°32'0 0.0
2015-Sep-04 02:33N 38°02' E 023°32'0 0.0
2015-Sep-04 01:33N 38°02' E 023°32'0 0.0
2015-Sep-04 00:33N 38°02' E 023°32'0 0.0
2015-Sep-03 23:33N 38°02' E 023°32'0 0.0
2015-Sep-03 22:33N 38°02' E 023°32'0 0.0
2015-Sep-03 21:33N 38°02' E 023°32'0 0.0
2015-Sep-03 20:33N 38°02' E 023°32'0 0.0
2015-Sep-03 19:33N 38°02' E 023°32'5 5.4
2015-Sep-03 18:33N 37°57' E 023°36'0 0.1
2015-Sep-03 17:33N 37°57' E 023°36'0 0.0
2015-Sep-03 16:33N 37°57' E 023°36'7 6.8
2015-Sep-03 15:33N 37°51' E 023°31'0 0.0
2015-Sep-03 14:33N 37°51' E 023°31'0 0.0
2015-Sep-03 13:33N 37°51' E 023°31'5 5.1
2015-Sep-03 12:33N 37°55' E 023°36'2 1.8
2015-Sep-03 11:33N 37°56' E 023°37'0 0.0
2015-Sep-03 10:33N 37°56' E 023°37'0 0.0
2015-Sep-03 09:33N 37°56' E 023°37'0 0.0
2015-Sep-03 08:33N 37°56' E 023°37'0 0.0
2015-Sep-03 07:33N 37°56' E 023°37'0 0.0
2015-Sep-03 06:33N 37°56' E 023°37'3 2.8
2015-Sep-03 05:33N 37°56' E 023°34'1 0.6
2015-Sep-03 04:33N 37°55' E 023°33'0 0.0
2015-Sep-03 03:33N 37°55' E 023°33'0 0.1
2015-Sep-03 02:33N 37°55' E 023°33'0 0.0
2015-Sep-03 01:33N 37°55' E 023°33'0 0.1
2015-Sep-03 00:33N 37°55' E 023°33'0 0.0
2015-Sep-02 23:33N 37°56' E 023°33'0 0.0
2015-Sep-02 22:33N 37°56' E 023°33'0 0.0
2015-Sep-02 21:33N 37°56' E 023°33'2 1.6
2015-Sep-02 20:33N 37°56' E 023°35'1 0.8
2015-Sep-02 19:33N 37°57' E 023°35'0 0.0
2015-Sep-02 18:33N 37°57' E 023°35'0 0.0
2015-Sep-02 17:33N 37°57' E 023°35'0 0.2
2015-Sep-02 16:33N 37°57' E 023°35'0 0.0
2015-Sep-02 15:33N 37°57' E 023°35'0 0.0
2015-Sep-02 14:33N 37°57' E 023°35'0 0.0
2015-Sep-02 13:33N 37°57' E 023°35'0 0.0
2015-Sep-02 12:30N 37°57' E 023°35'1 0.6
2015-Sep-02 11:34N 37°57' E 023°34'5 5.2
2015-Sep-02 10:33N 38°02' E 023°31'0 0.0
2015-Sep-02 09:33N 38°02' E 023°31'0 0.1
2015-Sep-02 08:33N 38°02' E 023°31'0 0.0
2015-Sep-02 07:33N 38°02' E 023°31'1 0.7
2015-Sep-02 06:33N 38°02' E 023°32'0 0.0
2015-Sep-02 05:33N 38°02' E 023°32'0 0.0
2015-Sep-02 04:33N 38°02' E 023°32'0 0.0
2015-Sep-02 03:33N 38°02' E 023°32'0 0.0
2015-Sep-02 02:33N 38°02' E 023°32'0 0.0
2015-Sep-02 01:33N 38°02' E 023°32'0 0.0
2015-Sep-02 00:33N 38°02' E 023°32'0 0.0
2015-Sep-01 23:33N 38°02' E 023°32'0 0.0
2015-Sep-01 22:33N 38°02' E 023°32'0 0.0
2015-Sep-01 21:33N 38°02' E 023°32'0 0.0
2015-Sep-01 20:33N 38°02' E 023°32'0 0.0
2015-Sep-01 19:33N 38°02' E 023°32'0 0.0
2015-Sep-01 18:33N 38°02' E 023°32'0 0.0
2015-Sep-01 17:33N 38°02' E 023°32'0 0.0
2015-Sep-01 16:33N 38°02' E 023°32'1 1.2
2015-Sep-01 15:33N 38°01' E 023°34'2 1.7
2015-Sep-01 14:33N 38°02' E 023°36'0 0.0
2015-Sep-01 13:33N 38°02' E 023°36'0 0.0
2015-Sep-01 12:33N 38°02' E 023°36'0 0.0
2015-Sep-01 11:33N 38°02' E 023°36'0 0.0
2015-Sep-01 10:33N 38°02' E 023°36'0 0.0
2015-Sep-01 09:33N 38°02' E 023°36'0 0.0
2015-Sep-01 08:33N 38°02' E 023°36'1 0.6
2015-Sep-01 07:32N 38°01' E 023°35'2 2.1
2015-Sep-01 06:33N 38°01' E 023°32'3 0.1
2015-Aug-31 08:26N 38°02' E 023°36'0 0.0
2015-Aug-31 07:33N 38°02' E 023°36'0 0.0
2015-Aug-31 06:33N 38°02' E 023°36'0 0.0
2015-Aug-31 05:33N 38°02' E 023°36'0 0.0
2015-Aug-31 04:33N 38°02' E 023°36'0 0.0
2015-Aug-31 03:33N 38°02' E 023°36'0 0.0
2015-Aug-31 02:33N 38°02' E 023°36'0 0.0
2015-Aug-31 01:33N 38°02' E 023°36'0 0.0
2015-Aug-31 00:33N 38°02' E 023°36'0 0.0
2015-Aug-30 23:33N 38°02' E 023°36'0 0.0
2015-Aug-30 22:33N 38°02' E 023°36'0 0.0
2015-Aug-30 21:33N 38°02' E 023°36'0 0.1
2015-Aug-30 20:32N 38°02' E 023°36'0 0.5
2015-Aug-30 19:32N 38°01' E 023°35'3 2.9
2015-Aug-30 18:33N 37°59' E 023°33'9 9.2
2015-Aug-30 17:33N 37°51' E 023°38'10 9.8
2015-Aug-30 16:33N 37°42' E 023°44'10 9.9
2015-Aug-30 15:33N 37°32' E 023°45'1110.1
2015-Aug-30 14:27N 37°21' E 023°43'  
2015-Aug-28 05:23N 37°28' E 023°42'8 9.1
2015-Aug-28 04:33N 37°36' E 023°42'9 9.0
2015-Aug-28 03:33N 37°44' E 023°39'8 7.8
2015-Aug-28 02:33N 37°50' E 023°32'9 8.9
2015-Aug-28 01:33N 37°55' E 023°23'8 7.5
2015-Aug-28 00:33N 38°01' E 023°28'6 5.4
2015-Aug-27 23:28N 38°02' E 023°36'0 0.0
2015-Aug-27 22:33N 38°02' E 023°36'0 0.0
2015-Aug-27 21:32N 38°02' E 023°36'0 0.0
2015-Aug-27 20:30N 38°02' E 023°36'0 0.0
2015-Aug-27 19:31N 38°02' E 023°36'0 0.0
2015-Aug-27 18:25N 38°02' E 023°36'0 0.0
2015-Aug-27 15:20N 38°02' E 023°36'0 0.0
2015-Aug-27 14:29N 38°02' E 023°36'0 0.5
2015-Aug-27 13:33N 38°01' E 023°35'3 2.5
2015-Aug-27 12:32N 38°02' E 023°32'0 0.0
2015-Aug-27 11:33N 38°02' E 023°32'0 0.0
2015-Aug-27 10:32N 38°02' E 023°32'0 0.0
2015-Aug-27 09:33N 38°02' E 023°32'0 0.0
2015-Aug-27 08:32N 38°02' E 023°32'0 0.0
2015-Aug-27 07:33N 38°02' E 023°32'0 0.0
2015-Aug-27 06:31N 38°02' E 023°32'0 0.0
2015-Aug-27 05:33N 38°02' E 023°32'0 0.0
2015-Aug-27 04:33N 38°02' E 023°32'1 1.2
2015-Aug-27 03:33N 38°02' E 023°31'0 0.0
2015-Aug-27 02:33N 38°02' E 023°31'0 0.0
2015-Aug-27 01:33N 38°02' E 023°31'0 0.0
2015-Aug-27 00:33N 38°02' E 023°31'0 0.0
2015-Aug-26 23:33N 38°02' E 023°31'0 0.0
2015-Aug-26 22:33N 38°02' E 023°31'0 0.0
2015-Aug-26 21:33N 38°02' E 023°31'0 0.0
2015-Aug-26 20:33N 38°02' E 023°31'0 0.0
2015-Aug-26 19:33N 38°02' E 023°31'0 0.0
2015-Aug-26 18:33N 38°02' E 023°31'0 0.4
2015-Aug-26 17:33N 38°02' E 023°31'4 0.7
2015-Aug-26 12:25N 38°02' E 023°36'0 0.0
2015-Aug-26 11:30N 38°02' E 023°36'0 0.0
2015-Aug-26 10:14N 38°02' E 023°36'0 0.0
2015-Aug-26 09:33N 38°02' E 023°36'0 0.0
2015-Aug-26 08:33N 38°02' E 023°36'0 0.0
2015-Aug-26 05:32N 38°02' E 023°36'0 0.0
2015-Aug-26 04:32N 38°02' E 023°36'0 0.0
2015-Aug-26 03:27N 38°02' E 023°36'0 0.0
2015-Aug-26 02:31N 38°02' E 023°36'0 0.5
2015-Aug-26 01:30N 38°02' E 023°35'0 0.0
2015-Aug-26 00:31N 38°02' E 023°35'0 0.0
2015-Aug-25 23:28N 38°02' E 023°35'  
Track history (hours):
 
Tides and Currents Weather Stations Pressure Air Temp Water Temp Dewpoint Dewpoint Depression Visibility Wind Speed Wind Dir Waves Ship Positions

Menalon

Last reported at 2015-Sep-04 22:33 UTC. Time now 2015-Sep-04 23:09 UTC.
Position N 38°02' E 023°32'.

; draft 3.5 m.

Type: Ship (hazmat cat C). MMSI: 239741000.

Date/timePositionNaut miles runAvg speedWind from/ knotsBaromVisibWave heightAir tempDewpointWater temp
2015-Sep-04 22:33N 38°02' E 023°32'0 0.0
2015-Sep-04 21:33N 38°02' E 023°32'0 0.0
2015-Sep-04 20:33N 38°02' E 023°32'0 0.0
2015-Sep-04 19:33N 38°02' E 023°32'0 0.0
2015-Sep-04 18:33N 38°02' E 023°32'3 2.8
2015-Sep-04 17:32N 38°02' E 023°36'0 0.0
2015-Sep-04 16:33N 38°02' E 023°36'0 0.0
2015-Sep-04 15:33N 38°02' E 023°36'1 0.7
2015-Sep-04 14:32N 38°01' E 023°35'0 0.1
2015-Sep-04 13:33N 38°02' E 023°35'2 2.1
2015-Sep-04 12:33N 38°02' E 023°32'0 0.0
2015-Sep-04 11:33N 38°02' E 023°32'0 0.0
2015-Sep-04 10:33N 38°02' E 023°32'0 0.0
2015-Sep-04 09:33N 38°02' E 023°32'0 0.0
2015-Sep-04 08:33N 38°02' E 023°32'0 0.0
2015-Sep-04 07:33N 38°02' E 023°32'0 0.0
2015-Sep-04 06:33N 38°02' E 023°32'0 0.0
2015-Sep-04 05:33N 38°02' E 023°32'0 0.0
2015-Sep-04 04:33N 38°02' E 023°32'0 0.0
2015-Sep-04 03:33N 38°02' E 023°32'0 0.0
2015-Sep-04 02:33N 38°02' E 023°32'0 0.0
2015-Sep-04 01:33N 38°02' E 023°32'0 0.0
2015-Sep-04 00:33N 38°02' E 023°32'0 0.0
2015-Sep-03 23:33N 38°02' E 023°32'0 0.0
2015-Sep-03 22:33N 38°02' E 023°32'0 0.0
2015-Sep-03 21:33N 38°02' E 023°32'0 0.0
2015-Sep-03 20:33N 38°02' E 023°32'0 0.0
2015-Sep-03 19:33N 38°02' E 023°32'5 5.4
2015-Sep-03 18:33N 37°57' E 023°36'0 0.1
2015-Sep-03 17:33N 37°57' E 023°36'0 0.0
2015-Sep-03 16:33N 37°57' E 023°36'7 6.8
2015-Sep-03 15:33N 37°51' E 023°31'0 0.0
2015-Sep-03 14:33N 37°51' E 023°31'0 0.0
2015-Sep-03 13:33N 37°51' E 023°31'5 5.1
2015-Sep-03 12:33N 37°55' E 023°36'2 1.8
2015-Sep-03 11:33N 37°56' E 023°37'0 0.0
2015-Sep-03 10:33N 37°56' E 023°37'0 0.0
2015-Sep-03 09:33N 37°56' E 023°37'0 0.0
2015-Sep-03 08:33N 37°56' E 023°37'0 0.0
2015-Sep-03 07:33N 37°56' E 023°37'0 0.0
2015-Sep-03 06:33N 37°56' E 023°37'3 2.8
2015-Sep-03 05:33N 37°56' E 023°34'1 0.6
2015-Sep-03 04:33N 37°55' E 023°33'0 0.0
2015-Sep-03 03:33N 37°55' E 023°33'0 0.1
2015-Sep-03 02:33N 37°55' E 023°33'0 0.0
2015-Sep-03 01:33N 37°55' E 023°33'0 0.1
2015-Sep-03 00:33N 37°55' E 023°33'0 0.0
2015-Sep-02 23:33N 37°56' E 023°33'0 0.0
2015-Sep-02 22:33N 37°56' E 023°33'0 0.0
2015-Sep-02 21:33N 37°56' E 023°33'2 1.6
2015-Sep-02 20:33N 37°56' E 023°35'1 0.8
2015-Sep-02 19:33N 37°57' E 023°35'0 0.0
2015-Sep-02 18:33N 37°57' E 023°35'0 0.0
2015-Sep-02 17:33N 37°57' E 023°35'0 0.2
2015-Sep-02 16:33N 37°57' E 023°35'0 0.0
2015-Sep-02 15:33N 37°57' E 023°35'0 0.0
2015-Sep-02 14:33N 37°57' E 023°35'0 0.0
2015-Sep-02 13:33N 37°57' E 023°35'0 0.0
2015-Sep-02 12:30N 37°57' E 023°35'1 0.6
2015-Sep-02 11:34N 37°57' E 023°34'5 5.2
2015-Sep-02 10:33N 38°02' E 023°31'0 0.0
2015-Sep-02 09:33N 38°02' E 023°31'0 0.1
2015-Sep-02 08:33N 38°02' E 023°31'0 0.0
2015-Sep-02 07:33N 38°02' E 023°31'1 0.7
2015-Sep-02 06:33N 38°02' E 023°32'0 0.0
2015-Sep-02 05:33N 38°02' E 023°32'0 0.0
2015-Sep-02 04:33N 38°02' E 023°32'0 0.0
2015-Sep-02 03:33N 38°02' E 023°32'0 0.0
2015-Sep-02 02:33N 38°02' E 023°32'0 0.0
2015-Sep-02 01:33N 38°02' E 023°32'0 0.0
2015-Sep-02 00:33N 38°02' E 023°32'0 0.0
2015-Sep-01 23:33N 38°02' E 023°32'0 0.0
2015-Sep-01 22:33N 38°02' E 023°32'0 0.0
2015-Sep-01 21:33N 38°02' E 023°32'0 0.0
2015-Sep-01 20:33N 38°02' E 023°32'0 0.0
2015-Sep-01 19:33N 38°02' E 023°32'0 0.0
2015-Sep-01 18:33N 38°02' E 023°32'0 0.0
2015-Sep-01 17:33N 38°02' E 023°32'0 0.0
2015-Sep-01 16:33N 38°02' E 023°32'1 1.2
2015-Sep-01 15:33N 38°01' E 023°34'2 1.7
2015-Sep-01 14:33N 38°02' E 023°36'0 0.0
2015-Sep-01 13:33N 38°02' E 023°36'0 0.0
2015-Sep-01 12:33N 38°02' E 023°36'0 0.0
2015-Sep-01 11:33N 38°02' E 023°36'0 0.0
2015-Sep-01 10:33N 38°02' E 023°36'0 0.0
2015-Sep-01 09:33N 38°02' E 023°36'0 0.0
2015-Sep-01 08:33N 38°02' E 023°36'1 0.6
2015-Sep-01 07:32N 38°01' E 023°35'2 2.1
2015-Sep-01 06:33N 38°01' E 023°32'3 0.1
2015-Aug-31 08:26N 38°02' E 023°36'0 0.0
2015-Aug-31 07:33N 38°02' E 023°36'0 0.0
2015-Aug-31 06:33N 38°02' E 023°36'0 0.0
2015-Aug-31 05:33N 38°02' E 023°36'0 0.0
2015-Aug-31 04:33N 38°02' E 023°36'0 0.0
2015-Aug-31 03:33N 38°02' E 023°36'0 0.0
2015-Aug-31 02:33N 38°02' E 023°36'0 0.0
2015-Aug-31 01:33N 38°02' E 023°36'0 0.0
2015-Aug-31 00:33N 38°02' E 023°36'0 0.0
2015-Aug-30 23:33N 38°02' E 023°36'0 0.0
2015-Aug-30 22:33N 38°02' E 023°36'0 0.0
2015-Aug-30 21:33N 38°02' E 023°36'0 0.1
2015-Aug-30 20:32N 38°02' E 023°36'0 0.5
2015-Aug-30 19:32N 38°01' E 023°35'3 2.9
2015-Aug-30 18:33N 37°59' E 023°33'9 9.2
2015-Aug-30 17:33N 37°51' E 023°38'10 9.8
2015-Aug-30 16:33N 37°42' E 023°44'10 9.9
2015-Aug-30 15:33N 37°32' E 023°45'1110.1
2015-Aug-30 14:27N 37°21' E 023°43'  
2015-Aug-28 05:23N 37°28' E 023°42'8 9.1
2015-Aug-28 04:33N 37°36' E 023°42'9 9.0
2015-Aug-28 03:33N 37°44' E 023°39'8 7.8
2015-Aug-28 02:33N 37°50' E 023°32'9 8.9
2015-Aug-28 01:33N 37°55' E 023°23'8 7.5
2015-Aug-28 00:33N 38°01' E 023°28'6 5.4
2015-Aug-27 23:28N 38°02' E 023°36'0 0.0
2015-Aug-27 22:33N 38°02' E 023°36'0 0.0
2015-Aug-27 21:32N 38°02' E 023°36'0 0.0
2015-Aug-27 20:30N 38°02' E 023°36'0 0.0
2015-Aug-27 19:31N 38°02' E 023°36'0 0.0
2015-Aug-27 18:25N 38°02' E 023°36'0 0.0
2015-Aug-27 15:20N 38°02' E 023°36'0 0.0
2015-Aug-27 14:29N 38°02' E 023°36'0 0.5
2015-Aug-27 13:33N 38°01' E 023°35'3 2.5
2015-Aug-27 12:32N 38°02' E 023°32'0 0.0
2015-Aug-27 11:33N 38°02' E 023°32'0 0.0
2015-Aug-27 10:32N 38°02' E 023°32'0 0.0
2015-Aug-27 09:33N 38°02' E 023°32'0 0.0
2015-Aug-27 08:32N 38°02' E 023°32'0 0.0
2015-Aug-27 07:33N 38°02' E 023°32'0 0.0
2015-Aug-27 06:31N 38°02' E 023°32'0 0.0
2015-Aug-27 05:33N 38°02' E 023°32'0 0.0
2015-Aug-27 04:33N 38°02' E 023°32'1 1.2
2015-Aug-27 03:33N 38°02' E 023°31'0 0.0
2015-Aug-27 02:33N 38°02' E 023°31'0 0.0
2015-Aug-27 01:33N 38°02' E 023°31'0 0.0
2015-Aug-27 00:33N 38°02' E 023°31'0 0.0
2015-Aug-26 23:33N 38°02' E 023°31'0 0.0
2015-Aug-26 22:33N 38°02' E 023°31'0 0.0
2015-Aug-26 21:33N 38°02' E 023°31'0 0.0
2015-Aug-26 20:33N 38°02' E 023°31'0 0.0
2015-Aug-26 19:33N 38°02' E 023°31'0 0.0
2015-Aug-26 18:33N 38°02' E 023°31'0 0.4
2015-Aug-26 17:33N 38°02' E 023°31'4 0.7
2015-Aug-26 12:25N 38°02' E 023°36'0 0.0
2015-Aug-26 11:30N 38°02' E 023°36'0 0.0
2015-Aug-26 10:14N 38°02' E 023°36'0 0.0
2015-Aug-26 09:33N 38°02' E 023°36'0 0.0
2015-Aug-26 08:33N 38°02' E 023°36'0 0.0
2015-Aug-26 05:32N 38°02' E 023°36'0 0.0
2015-Aug-26 04:32N 38°02' E 023°36'0 0.0
2015-Aug-26 03:27N 38°02' E 023°36'0 0.0
2015-Aug-26 02:31N 38°02' E 023°36'0 0.5
2015-Aug-26 01:30N 38°02' E 023°35'0 0.0
2015-Aug-26 00:31N 38°02' E 023°35'0 0.0
2015-Aug-25 23:28N 38°02' E 023°35'  

Dump ship's entire track history